sensor_id;sensor_type;location;lat;lon;timestamp;pressure;altitude;pressure_sealevel;temperature;humidity
85507;BME280;75915;41.988;21.460;2024-03-02T00:02:17;98145.03;;;10.07;75.77
85507;BME280;75915;41.988;21.460;2024-03-02T00:04:45;98148.28;;;10.03;76.33
85507;BME280;75915;41.988;21.460;2024-03-02T00:07:15;98147.72;;;10.07;76.21
85507;BME280;75915;41.988;21.460;2024-03-02T00:09:40;98131.38;;;10.08;76.05
85507;BME280;75915;41.988;21.460;2024-03-02T00:12:06;98128.72;;;10.08;76.20
85507;BME280;75915;41.988;21.460;2024-03-02T00:14:32;98135.09;;;10.17;76.49
85507;BME280;75915;41.988;21.460;2024-03-02T00:16:58;98131.91;;;10.05;76.58
85507;BME280;75915;41.988;21.460;2024-03-02T00:19:25;98131.91;;;10.10;76.64
85507;BME280;75915;41.988;21.460;2024-03-02T00:21:51;98142.59;;;10.15;76.71
85507;BME280;75915;41.988;21.460;2024-03-02T00:24:31;98143.63;;;10.19;76.43
85507;BME280;75915;41.988;21.460;2024-03-02T00:26:58;98139.09;;;10.20;76.48
85507;BME280;75915;41.988;21.460;2024-03-02T00:29:24;98140.44;;;10.22;76.37
85507;BME280;75915;41.988;21.460;2024-03-02T00:31:51;98135.38;;;10.16;76.18
85507;BME280;75915;41.988;21.460;2024-03-02T00:34:20;98139.41;;;10.13;76.24
85507;BME280;75915;41.988;21.460;2024-03-02T00:36:48;98142.63;;;10.05;76.26
85507;BME280;75915;41.988;21.460;2024-03-02T00:39:18;98142.34;;;10.07;76.57
85507;BME280;75915;41.988;21.460;2024-03-02T00:41:44;98136.72;;;10.13;76.61
85507;BME280;75915;41.988;21.460;2024-03-02T00:44:12;98142.88;;;10.14;76.57
85507;BME280;75915;41.988;21.460;2024-03-02T00:46:39;98143.97;;;10.13;76.39
85507;BME280;75915;41.988;21.460;2024-03-02T00:49:23;98144.50;;;10.15;76.54
85507;BME280;75915;41.988;21.460;2024-03-02T00:51:51;98151.97;;;10.18;76.23
85507;BME280;75915;41.988;21.460;2024-03-02T00:54:26;98143.41;;;10.16;76.47
85507;BME280;75915;41.988;21.460;2024-03-02T00:56:53;98144.78;;;10.08;76.25
85507;BME280;75915;41.988;21.460;2024-03-02T00:59:22;98140.50;;;10.02;76.68
85507;BME280;75915;41.988;21.460;2024-03-02T01:01:49;98138.09;;;10.06;76.72
85507;BME280;75915;41.988;21.460;2024-03-02T01:04:16;98139.41;;;10.08;76.66
85507;BME280;75915;41.988;21.460;2024-03-02T01:06:44;98130.88;;;10.01;76.22
85507;BME280;75915;41.988;21.460;2024-03-02T01:09:09;98133.28;;;9.97;76.77
85507;BME280;75915;41.988;21.460;2024-03-02T01:11:35;98135.97;;;9.92;76.76
85507;BME280;75915;41.988;21.460;2024-03-02T01:14:00;98126.63;;;9.90;76.93
85507;BME280;75915;41.988;21.460;2024-03-02T01:16:26;98136.81;;;9.88;76.63
85507;BME280;75915;41.988;21.460;2024-03-02T01:18:51;98136.25;;;9.86;76.86
85507;BME280;75915;41.988;21.460;2024-03-02T01:21:17;98135.72;;;9.94;77.03
85507;BME280;75915;41.988;21.460;2024-03-02T01:23:43;98131.44;;;9.98;76.94
85507;BME280;75915;41.988;21.460;2024-03-02T01:26:08;98138.09;;;10.06;76.86
85507;BME280;75915;41.988;21.460;2024-03-02T01:28:34;98137.28;;;10.05;76.38
85507;BME280;75915;41.988;21.460;2024-03-02T01:30:59;98129.25;;;10.10;76.61
85507;BME280;75915;41.988;21.460;2024-03-02T01:33:27;98139.13;;;10.15;76.59
85507;BME280;75915;41.988;21.460;2024-03-02T01:35:54;98135.91;;;10.18;76.33
85507;BME280;75915;41.988;21.460;2024-03-02T01:38:20;98132.13;;;10.19;75.86
85507;BME280;75915;41.988;21.460;2024-03-02T01:40:46;98129.44;;;10.24;75.94
85507;BME280;75915;41.988;21.460;2024-03-02T01:43:12;98125.16;;;10.28;75.85
85507;BME280;75915;41.988;21.460;2024-03-02T01:45:37;98125.16;;;10.23;75.78
85507;BME280;75915;41.988;21.460;2024-03-02T01:48:07;98130.00;;;10.21;75.59
85507;BME280;75915;41.988;21.460;2024-03-02T01:50:33;98120.03;;;10.26;75.58
85507;BME280;75915;41.988;21.460;2024-03-02T01:53:00;98120.34;;;10.30;75.72
85507;BME280;75915;41.988;21.460;2024-03-02T01:55:29;98125.94;;;10.34;75.63
85507;BME280;75915;41.988;21.460;2024-03-02T01:57:55;98117.38;;;10.37;75.31
85507;BME280;75915;41.988;21.460;2024-03-02T02:00:23;98118.97;;;10.38;75.07
85507;BME280;75915;41.988;21.460;2024-03-02T02:02:51;98122.16;;;10.40;75.12
85507;BME280;75915;41.988;21.460;2024-03-02T02:05:18;98115.69;;;10.46;75.18
85507;BME280;75915;41.988;21.460;2024-03-02T02:07:43;98120.78;;;10.48;75.09
85507;BME280;75915;41.988;21.460;2024-03-02T02:10:10;98118.88;;;10.48;75.66
85507;BME280;75915;41.988;21.460;2024-03-02T02:12:37;98117.31;;;10.47;75.80
85507;BME280;75915;41.988;21.460;2024-03-02T02:15:21;98121.56;;;10.48;75.79
85507;BME280;75915;41.988;21.460;2024-03-02T02:17:47;98118.13;;;10.42;75.73
85507;BME280;75915;41.988;21.460;2024-03-02T02:20:13;98121.91;;;10.41;75.76
85507;BME280;75915;41.988;21.460;2024-03-02T02:22:39;98127.75;;;10.43;75.97
85507;BME280;75915;41.988;21.460;2024-03-02T02:25:06;98126.69;;;10.44;75.74
85507;BME280;75915;41.988;21.460;2024-03-02T02:27:31;98121.91;;;10.41;75.91
85507;BME280;75915;41.988;21.460;2024-03-02T02:29:58;98114.38;;;10.43;75.51
85507;BME280;75915;41.988;21.460;2024-03-02T02:32:25;98114.94;;;10.40;75.50
85507;BME280;75915;41.988;21.460;2024-03-02T02:34:54;98113.88;;;10.36;75.81
85507;BME280;75915;41.988;21.460;2024-03-02T02:37:20;98109.59;;;10.35;76.11
85507;BME280;75915;41.988;21.460;2024-03-02T02:39:45;98111.72;;;10.38;76.04
85507;BME280;75915;41.988;21.460;2024-03-02T02:42:12;98116.53;;;10.36;76.25
85507;BME280;75915;41.988;21.460;2024-03-02T02:44:40;98113.88;;;10.36;76.62
85507;BME280;75915;41.988;21.460;2024-03-02T02:47:05;98113.63;;;10.33;76.70
85507;BME280;75915;41.988;21.460;2024-03-02T02:49:31;98122.19;;;10.35;76.70
85507;BME280;75915;41.988;21.460;2024-03-02T02:51:56;98124.88;;;10.35;76.29
85507;BME280;75915;41.988;21.460;2024-03-02T02:54:23;98124.31;;;10.38;75.96
85507;BME280;75915;41.988;21.460;2024-03-02T02:56:49;98118.44;;;10.36;76.26
85507;BME280;75915;41.988;21.460;2024-03-02T02:59:15;98126.19;;;10.37;75.62
85507;BME280;75915;41.988;21.460;2024-03-02T03:01:40;98125.91;;;10.39;75.40
85507;BME280;75915;41.988;21.460;2024-03-02T03:04:07;98122.16;;;10.40;75.04
85507;BME280;75915;41.988;21.460;2024-03-02T03:06:32;98124.56;;;10.41;75.41
85507;BME280;75915;41.988;21.460;2024-03-02T03:09:00;98126.44;;;10.41;75.10
85507;BME280;75915;41.988;21.460;2024-03-02T03:11:25;98131.56;;;10.37;75.21
85507;BME280;75915;41.988;21.460;2024-03-02T03:13:52;98131.56;;;10.37;75.08
85507;BME280;75915;41.988;21.460;2024-03-02T03:16:19;98131.56;;;10.37;74.98
85507;BME280;75915;41.988;21.460;2024-03-02T03:18:47;98137.97;;;10.36;75.09
85507;BME280;75915;41.988;21.460;2024-03-02T03:21:15;98130.75;;;10.37;75.13
85507;BME280;75915;41.988;21.460;2024-03-02T03:23:40;98129.13;;;10.36;75.22
85507;BME280;75915;41.988;21.460;2024-03-02T03:26:06;98136.94;;;10.32;75.43
85507;BME280;75915;41.988;21.460;2024-03-02T03:28:31;98135.06;;;10.33;75.56
85507;BME280;75915;41.988;21.460;2024-03-02T03:30:58;98137.47;;;10.34;75.52
85507;BME280;75915;41.988;21.460;2024-03-02T03:33:25;98137.19;;;10.36;75.40
85507;BME280;75915;41.988;21.460;2024-03-02T03:35:51;98138.75;;;10.42;75.59
85507;BME280;75915;41.988;21.460;2024-03-02T03:38:16;98140.13;;;10.39;76.01
85507;BME280;75915;41.988;21.460;2024-03-02T03:40:42;98134.47;;;10.41;76.02
85507;BME280;75915;41.988;21.460;2024-03-02T03:43:09;98139.59;;;10.37;75.91
85507;BME280;75915;41.988;21.460;2024-03-02T03:45:34;98145.75;;;10.38;75.92
85507;BME280;75915;41.988;21.460;2024-03-02T03:48:02;98133.94;;;10.39;76.06
85507;BME280;75915;41.988;21.460;2024-03-02T03:50:27;98131.56;;;10.37;76.28
85507;BME280;75915;41.988;21.460;2024-03-02T03:52:56;98134.22;;;10.37;76.00
85507;BME280;75915;41.988;21.460;2024-03-02T03:55:21;98132.34;;;10.38;76.31
85507;BME280;75915;41.988;21.460;2024-03-02T03:57:47;98123.78;;;10.36;76.12
85507;BME280;75915;41.988;21.460;2024-03-02T04:00:14;98121.41;;;10.34;76.33
85507;BME280;75915;41.988;21.460;2024-03-02T04:02:41;98120.31;;;10.35;76.20
85507;BME280;75915;41.988;21.460;2024-03-02T04:05:06;98109.06;;;10.33;76.45
85507;BME280;75915;41.988;21.460;2024-03-02T04:07:36;98115.47;;;10.37;76.41
85507;BME280;75915;41.988;21.460;2024-03-02T04:10:09;98115.19;;;10.39;76.10
85507;BME280;75915;41.988;21.460;2024-03-02T04:12:38;98118.69;;;10.39;76.27
85507;BME280;75915;41.988;21.460;2024-03-02T04:15:07;98122.97;;;10.40;76.05
85507;BME280;75915;41.988;21.460;2024-03-02T04:17:37;98121.91;;;10.41;76.28
85507;BME280;75915;41.988;21.460;2024-03-02T04:20:03;98121.06;;;10.41;76.03
85507;BME280;75915;41.988;21.460;2024-03-02T04:22:35;98112.25;;;10.40;75.93
85507;BME280;75915;41.988;21.460;2024-03-02T04:25:02;98118.97;;;10.38;76.37
85507;BME280;75915;41.988;21.460;2024-03-02T04:27:30;98118.41;;;10.41;76.31
85507;BME280;75915;41.988;21.460;2024-03-02T04:29:57;98128.31;;;10.40;76.17
85507;BME280;75915;41.988;21.460;2024-03-02T04:32:22;98126.19;;;10.37;76.10
85507;BME280;75915;41.988;21.460;2024-03-02T04:34:48;98125.44;;;10.32;76.27
85507;BME280;75915;41.988;21.460;2024-03-02T04:37:13;98124.34;;;10.33;76.60
85507;BME280;75915;41.988;21.460;2024-03-02T04:39:41;98123.81;;;10.31;76.77
85507;BME280;75915;41.988;21.460;2024-03-02T04:42:07;98122.50;;;10.28;76.57
85507;BME280;75915;41.988;21.460;2024-03-02T04:44:33;98126.00;;;10.18;76.86
85507;BME280;75915;41.988;21.460;2024-03-02T04:46:58;98124.97;;;10.04;77.41
85507;BME280;75915;41.988;21.460;2024-03-02T04:49:24;98129.78;;;10.07;77.34
85507;BME280;75915;41.988;21.460;2024-03-02T04:51:49;98133.28;;;10.08;77.41
85507;BME280;75915;41.988;21.460;2024-03-02T04:54:15;98131.38;;;10.13;76.95
85507;BME280;75915;41.988;21.460;2024-03-02T04:56:40;98134.81;;;10.19;77.03
85507;BME280;75915;41.988;21.460;2024-03-02T04:59:16;98132.38;;;10.28;76.46
85507;BME280;75915;41.988;21.460;2024-03-02T05:01:44;98128.34;;;10.35;76.63
85507;BME280;75915;41.988;21.460;2024-03-02T05:04:09;98134.22;;;10.37;76.35
85507;BME280;75915;41.988;21.460;2024-03-02T05:06:39;98138.00;;;10.31;76.27
85507;BME280;75915;41.988;21.460;2024-03-02T05:09:06;98138.81;;;10.32;76.45
85507;BME280;75915;41.988;21.460;2024-03-02T05:11:31;98138.56;;;10.28;76.76
85507;BME280;75915;41.988;21.460;2024-03-02T05:14:10;98144.44;;;10.30;76.71
85507;BME280;75915;41.988;21.460;2024-03-02T05:16:37;98142.03;;;10.29;76.66
85507;BME280;75915;41.988;21.460;2024-03-02T05:19:07;98144.19;;;10.32;76.78
85507;BME280;75915;41.988;21.460;2024-03-02T05:21:34;98145.50;;;10.34;76.76
85507;BME280;75915;41.988;21.460;2024-03-02T05:24:01;98142.25;;;10.37;76.43
85507;BME280;75915;41.988;21.460;2024-03-02T05:26:27;98144.66;;;10.39;76.13
85507;BME280;75915;41.988;21.460;2024-03-02T05:28:53;98137.44;;;10.39;76.05
85507;BME280;75915;41.988;21.460;2024-03-02T05:31:18;98141.16;;;10.43;76.46
85507;BME280;75915;41.988;21.460;2024-03-02T05:33:45;98142.22;;;10.42;75.97
85507;BME280;75915;41.988;21.460;2024-03-02T05:36:10;98144.38;;;10.40;75.88
85507;BME280;75915;41.988;21.460;2024-03-02T05:38:36;98145.47;;;10.39;76.35
85507;BME280;75915;41.988;21.460;2024-03-02T05:41:02;98154.31;;;10.40;76.12
85507;BME280;75915;41.988;21.460;2024-03-02T05:43:28;98154.03;;;10.41;76.08
85507;BME280;75915;41.988;21.460;2024-03-02T05:45:54;98155.13;;;10.35;75.91
85507;BME280;75915;41.988;21.460;2024-03-02T05:48:20;98162.06;;;10.36;75.93
85507;BME280;75915;41.988;21.460;2024-03-02T05:50:45;98163.16;;;10.35;75.83
85507;BME280;75915;41.988;21.460;2024-03-02T05:53:12;98166.91;;;10.39;75.70
85507;BME280;75915;41.988;21.460;2024-03-02T05:55:40;98169.03;;;10.37;75.81
85507;BME280;75915;41.988;21.460;2024-03-02T05:58:06;98166.59;;;10.41;75.67
85507;BME280;75915;41.988;21.460;2024-03-02T06:00:31;98172.78;;;10.41;75.37
85507;BME280;75915;41.988;21.460;2024-03-02T06:02:57;98179.47;;;10.39;75.21
85507;BME280;75915;41.988;21.460;2024-03-02T06:05:24;98180.81;;;10.36;75.51
85507;BME280;75915;41.988;21.460;2024-03-02T06:07:50;98185.09;;;10.42;75.65
85507;BME280;75915;41.988;21.460;2024-03-02T06:10:16;98184.78;;;10.49;75.03
85507;BME280;75915;41.988;21.460;2024-03-02T06:12:43;98179.41;;;10.54;75.17
85507;BME280;75915;41.988;21.460;2024-03-02T06:15:09;98182.06;;;10.59;75.13
85507;BME280;75915;41.988;21.460;2024-03-02T06:17:37;98180.44;;;10.63;75.19
85507;BME280;75915;41.988;21.460;2024-03-02T06:20:03;98181.78;;;10.61;75.32
85507;BME280;75915;41.988;21.460;2024-03-02T06:22:28;98178.28;;;10.60;75.52
85507;BME280;75915;41.988;21.460;2024-03-02T06:24:54;98182.84;;;10.60;75.30
85507;BME280;75915;41.988;21.460;2024-03-02T06:27:21;98181.47;;;10.67;75.08
85507;BME280;75915;41.988;21.460;2024-03-02T06:29:47;98185.19;;;10.72;74.87
85507;BME280;75915;41.988;21.460;2024-03-02T06:32:13;98182.22;;;10.78;74.54
85507;BME280;75915;41.988;21.460;2024-03-02T06:34:40;98184.91;;;10.78;74.18
85507;BME280;75915;41.988;21.460;2024-03-02T06:37:06;98187.59;;;10.78;73.81
85507;BME280;75915;41.988;21.460;2024-03-02T06:39:32;98192.66;;;10.80;73.81
85507;BME280;75915;41.988;21.460;2024-03-02T06:42:00;98179.00;;;10.76;73.70
85507;BME280;75915;41.988;21.460;2024-03-02T06:44:26;98185.44;;;10.80;73.82
85507;BME280;75915;41.988;21.460;2024-03-02T06:46:51;98194.75;;;10.88;73.56
85507;BME280;75915;41.988;21.460;2024-03-02T06:49:17;98195.78;;;10.97;73.93
85507;BME280;75915;41.988;21.460;2024-03-02T06:51:44;98204.28;;;11.09;73.61
85507;BME280;75915;41.988;21.460;2024-03-02T06:54:10;98207.31;;;11.32;72.38
85507;BME280;75915;41.988;21.460;2024-03-02T06:56:36;98207.25;;;11.71;72.06
85507;BME280;75915;41.988;21.460;2024-03-02T06:59:02;98204.63;;;12.20;70.53
85507;BME280;75915;41.988;21.460;2024-03-02T07:01:28;98199.53;;;12.42;69.27
85507;BME280;75915;41.988;21.460;2024-03-02T07:03:53;98202.28;;;12.37;69.40
85507;BME280;75915;41.988;21.460;2024-03-02T07:06:19;98200.47;;;12.32;68.98
85507;BME280;75915;41.988;21.460;2024-03-02T07:08:45;98200.16;;;12.34;69.22
85507;BME280;75915;41.988;21.460;2024-03-02T07:11:10;98210.03;;;12.63;69.38
85507;BME280;75915;41.988;21.460;2024-03-02T07:13:36;98203.84;;;13.38;67.66
85507;BME280;75915;41.988;21.460;2024-03-02T07:16:01;98209.97;;;13.90;64.86
85507;BME280;75915;41.988;21.460;2024-03-02T07:18:36;98205.19;;;14.42;63.56
85507;BME280;75915;41.988;21.460;2024-03-02T07:21:10;98203.84;;;14.95;61.78
85507;BME280;75915;41.988;21.460;2024-03-02T07:23:45;98205.50;;;15.05;61.03
85507;BME280;75915;41.988;21.460;2024-03-02T07:26:11;98215.25;;;14.92;60.27
85507;BME280;75915;41.988;21.460;2024-03-02T07:28:37;98214.84;;;14.99;60.75
85507;BME280;75915;41.988;21.460;2024-03-02T07:31:03;98211.34;;;15.43;59.99
85507;BME280;75915;41.988;21.460;2024-03-02T07:33:33;98204.53;;;15.91;58.24
85507;BME280;75915;41.988;21.460;2024-03-02T07:35:59;98205.53;;;16.52;56.04
85507;BME280;75915;41.988;21.460;2024-03-02T07:38:26;98202.78;;;16.92;56.22
85507;BME280;75915;41.988;21.460;2024-03-02T07:40:53;98206.94;;;17.16;55.02
85507;BME280;75915;41.988;21.460;2024-03-02T07:43:20;98207.88;;;17.37;54.07
85507;BME280;75915;41.988;21.460;2024-03-02T07:45:46;98206.91;;;17.07;53.63
85507;BME280;75915;41.988;21.460;2024-03-02T07:48:12;98217.16;;;16.61;53.80
85507;BME280;75915;41.988;21.460;2024-03-02T07:50:38;98215.06;;;16.50;53.84
85507;BME280;75915;41.988;21.460;2024-03-02T07:53:07;98221.81;;;16.70;53.76
85507;BME280;75915;41.988;21.460;2024-03-02T07:55:33;98216.13;;;16.89;52.92
85507;BME280;75915;41.988;21.460;2024-03-02T07:58:01;98219.81;;;17.19;53.54
85507;BME280;75915;41.988;21.460;2024-03-02T08:00:26;98226.03;;;17.45;50.56
85507;BME280;75915;41.988;21.460;2024-03-02T08:02:59;98217.84;;;17.89;50.14
85507;BME280;75915;41.988;21.460;2024-03-02T08:05:26;98224.69;;;18.33;49.18
85507;BME280;75915;41.988;21.460;2024-03-02T08:07:53;98227.78;;;18.53;49.09
85507;BME280;75915;41.988;21.460;2024-03-02T08:10:19;98225.25;;;18.48;47.92
85507;BME280;75915;41.988;21.460;2024-03-02T08:12:46;98232.78;;;18.42;48.04
85507;BME280;75915;41.988;21.460;2024-03-02T08:15:11;98233.66;;;18.25;48.58
85507;BME280;75915;41.988;21.460;2024-03-02T08:17:40;98242.88;;;17.68;49.14
85507;BME280;75915;41.988;21.460;2024-03-02T08:20:14;98241.34;;;17.33;49.60
85507;BME280;75915;41.988;21.460;2024-03-02T08:22:39;98238.28;;;17.17;50.93
85507;BME280;75915;41.988;21.460;2024-03-02T08:25:06;98236.06;;;17.01;51.06
85507;BME280;75915;41.988;21.460;2024-03-02T08:27:33;98237.38;;;16.55;52.38
85507;BME280;75915;41.988;21.460;2024-03-02T08:29:58;98243.41;;;15.58;54.48
85507;BME280;75915;41.988;21.460;2024-03-02T08:32:24;98246.22;;;14.81;56.57
85507;BME280;75915;41.988;21.460;2024-03-02T08:34:49;98252.34;;;14.59;57.05
85507;BME280;75915;41.988;21.460;2024-03-02T08:37:16;98251.03;;;14.56;57.16
85507;BME280;75915;41.988;21.460;2024-03-02T08:39:45;98252.66;;;14.57;57.03
85507;BME280;75915;41.988;21.460;2024-03-02T08:42:11;98246.22;;;14.53;57.40
85507;BME280;75915;41.988;21.460;2024-03-02T08:44:37;98252.03;;;14.19;59.37
85507;BME280;75915;41.988;21.460;2024-03-02T08:47:03;98261.19;;;14.18;60.19
85507;BME280;75915;41.988;21.460;2024-03-02T08:49:29;98258.56;;;13.99;60.70
85507;BME280;75915;41.988;21.460;2024-03-02T08:51:54;98248.38;;;13.96;61.08
85507;BME280;75915;41.988;21.460;2024-03-02T08:54:21;98256.78;;;13.94;60.78
85507;BME280;75915;41.988;21.460;2024-03-02T08:56:50;98254.50;;;14.15;60.71
85507;BME280;75915;41.988;21.460;2024-03-02T08:59:16;98251.63;;;14.39;60.27
85507;BME280;75915;41.988;21.460;2024-03-02T09:01:42;98250.72;;;14.44;59.52
85507;BME280;75915;41.988;21.460;2024-03-02T09:04:10;98247.94;;;14.63;58.56
85507;BME280;75915;41.988;21.460;2024-03-02T09:06:35;98246.31;;;14.89;58.13
85507;BME280;75915;41.988;21.460;2024-03-02T09:09:02;98255.28;;;14.99;58.83
85507;BME280;75915;41.988;21.460;2024-03-02T09:11:29;98240.56;;;15.05;57.76
85507;BME280;75915;41.988;21.460;2024-03-02T09:13:55;98248.25;;;15.11;57.94
85507;BME280;75915;41.988;21.460;2024-03-02T09:16:23;98238.63;;;15.19;57.78
85507;BME280;75915;41.988;21.460;2024-03-02T09:18:50;98241.25;;;15.47;56.85
85507;BME280;75915;41.988;21.460;2024-03-02T09:21:17;98236.81;;;15.51;56.71
85507;BME280;75915;41.988;21.460;2024-03-02T09:23:42;98234.34;;;15.63;56.81
85507;BME280;75915;41.988;21.460;2024-03-02T09:26:09;98236.59;;;15.61;56.44
85507;BME280;75915;41.988;21.460;2024-03-02T09:28:35;98234.81;;;15.79;55.38
85507;BME280;75915;41.988;21.460;2024-03-02T09:31:01;98235.16;;;16.17;55.49
85507;BME280;75915;41.988;21.460;2024-03-02T09:33:26;98239.22;;;15.75;55.61
85507;BME280;75915;41.988;21.460;2024-03-02T09:35:52;98238.97;;;15.63;55.66
85507;BME280;75915;41.988;21.460;2024-03-02T09:38:17;98238.25;;;15.12;56.56
85507;BME280;75915;41.988;21.460;2024-03-02T09:40:43;98247.09;;;15.04;57.54
85507;BME280;75915;41.988;21.460;2024-03-02T09:43:09;98240.94;;;14.89;57.67
85507;BME280;75915;41.988;21.460;2024-03-02T09:45:36;98238.53;;;14.46;58.56
85507;BME280;75915;41.988;21.460;2024-03-02T09:48:01;98248.59;;;13.99;59.46
85507;BME280;75915;41.988;21.460;2024-03-02T09:50:27;98250.53;;;14.26;58.66
85507;BME280;75915;41.988;21.460;2024-03-02T09:52:53;98241.88;;;14.57;58.94
85507;BME280;75915;41.988;21.460;2024-03-02T09:55:20;98243.50;;;14.94;58.15
85507;BME280;75915;41.988;21.460;2024-03-02T09:57:46;98242.00;;;15.61;57.48
85507;BME280;75915;41.988;21.460;2024-03-02T10:00:14;98241.63;;;16.08;55.36
85507;BME280;75915;41.988;21.460;2024-03-02T10:02:43;98236.94;;;15.91;54.27
85507;BME280;75915;41.988;21.460;2024-03-02T10:05:09;98240.34;;;16.36;54.26
85507;BME280;75915;41.988;21.460;2024-03-02T10:07:35;98229.44;;;16.68;53.61
85507;BME280;75915;41.988;21.460;2024-03-02T10:10:13;98227.63;;;16.94;52.43
85507;BME280;75915;41.988;21.460;2024-03-02T10:12:39;98229.84;;;16.92;51.70
85507;BME280;75915;41.988;21.460;2024-03-02T10:15:06;98222.09;;;16.11;52.86
85507;BME280;75915;41.988;21.460;2024-03-02T10:17:33;98221.16;;;16.15;53.42
85507;BME280;75915;41.988;21.460;2024-03-02T10:20:23;98212.44;;;16.18;54.47
85507;BME280;75915;41.988;21.460;2024-03-02T10:22:50;98213.38;;;16.62;53.24
85507;BME280;75915;41.988;21.460;2024-03-02T10:25:33;98210.34;;;16.55;51.46
85507;BME280;75915;41.988;21.460;2024-03-02T10:28:00;98205.31;;;16.80;50.39
85507;BME280;75915;41.988;21.460;2024-03-02T10:30:27;98195.91;;;16.77;51.06
85507;BME280;75915;41.988;21.460;2024-03-02T10:32:54;98202.00;;;16.34;51.22
85507;BME280;75915;41.988;21.460;2024-03-02T10:35:24;98199.81;;;16.54;51.25
85507;BME280;75915;41.988;21.460;2024-03-02T10:37:52;98202.50;;;16.45;51.67
85507;BME280;75915;41.988;21.460;2024-03-02T10:40:18;98197.03;;;16.28;52.28
85507;BME280;75915;41.988;21.460;2024-03-02T10:42:46;98188.56;;;16.60;51.48
85507;BME280;75915;41.988;21.460;2024-03-02T10:45:15;98193.63;;;16.53;50.51
85507;BME280;75915;41.988;21.460;2024-03-02T10:47:43;98194.47;;;16.23;50.20
85507;BME280;75915;41.988;21.460;2024-03-02T10:50:10;98181.50;;;16.42;51.13
85507;BME280;75915;41.988;21.460;2024-03-02T10:52:36;98176.06;;;16.25;49.89
85507;BME280;75915;41.988;21.460;2024-03-02T10:55:02;98182.72;;;15.87;50.90
85507;BME280;75915;41.988;21.460;2024-03-02T10:57:56;98174.97;;;16.34;51.50
85507;BME280;75915;41.988;21.460;2024-03-02T11:00:24;98170.75;;;16.11;50.27
85507;BME280;75915;41.988;21.460;2024-03-02T11:03:05;98168.63;;;15.99;51.37
85507;BME280;75915;41.988;21.460;2024-03-02T11:05:39;98157.91;;;15.76;52.37
85507;BME280;75915;41.988;21.460;2024-03-02T11:08:08;98166.84;;;15.86;52.16
85507;BME280;75915;41.988;21.460;2024-03-02T11:10:38;98163.50;;;15.89;51.64
85507;BME280;75915;41.988;21.460;2024-03-02T11:13:12;98162.28;;;15.95;51.38
85507;BME280;75915;41.988;21.460;2024-03-02T11:15:40;98156.09;;;16.03;50.67
85507;BME280;75915;41.988;21.460;2024-03-02T11:18:10;98147.84;;;16.08;51.02
85507;BME280;75915;41.988;21.460;2024-03-02T11:20:38;98148.03;;;16.20;50.65
85507;BME280;75915;41.988;21.460;2024-03-02T11:23:05;98146.31;;;16.25;50.68
85507;BME280;75915;41.988;21.460;2024-03-02T11:25:32;98147.75;;;16.22;50.73
85507;BME280;75915;41.988;21.460;2024-03-02T11:28:07;98138.81;;;16.13;50.57
85507;BME280;75915;41.988;21.460;2024-03-02T11:33:11;98125.63;;;16.20;50.61
85507;BME280;75915;41.988;21.460;2024-03-02T11:35:42;98134.53;;;16.20;50.62
85507;BME280;75915;41.988;21.460;2024-03-02T11:38:09;98126.13;;;16.31;50.77
85507;BME280;75915;41.988;21.460;2024-03-02T11:40:35;98128.53;;;16.32;50.73
85507;BME280;75915;41.988;21.460;2024-03-02T11:43:01;98129.13;;;16.20;50.68
85507;BME280;75915;41.988;21.460;2024-03-02T11:45:28;98124.38;;;16.26;50.98
85507;BME280;75915;41.988;21.460;2024-03-02T11:47:56;98119.44;;;16.28;49.87
85507;BME280;75915;41.988;21.460;2024-03-02T11:50:42;98124.56;;;16.38;50.15
85507;BME280;75915;41.988;21.460;2024-03-02T11:53:10;98119.13;;;16.30;49.84
85507;BME280;75915;41.988;21.460;2024-03-02T11:55:36;98114.22;;;16.40;50.36
85507;BME280;75915;41.988;21.460;2024-03-02T11:58:07;98103.59;;;16.53;49.69
85507;BME280;75915;41.988;21.460;2024-03-02T12:00:32;98105.31;;;16.57;49.89
85507;BME280;75915;41.988;21.460;2024-03-02T12:03:05;98103.72;;;16.48;50.09
85507;BME280;75915;41.988;21.460;2024-03-02T12:05:32;98108.84;;;16.67;49.59
85507;BME280;75915;41.988;21.460;2024-03-02T12:07:59;98107.84;;;16.19;49.89
85507;BME280;75915;41.988;21.460;2024-03-02T12:10:26;98110.31;;;15.98;50.27
85507;BME280;75915;41.988;21.460;2024-03-02T12:13:02;98105.69;;;15.98;49.92
85507;BME280;75915;41.988;21.460;2024-03-02T12:15:30;98101.94;;;16.17;50.28
85507;BME280;75915;41.988;21.460;2024-03-02T12:17:59;98102.16;;;16.47;49.20
85507;BME280;75915;41.988;21.460;2024-03-02T12:20:27;98098.66;;;16.72;48.88
85507;BME280;75915;41.988;21.460;2024-03-02T12:22:55;98095.66;;;16.82;48.68
85507;BME280;75915;41.988;21.460;2024-03-02T12:25:22;98094.19;;;16.59;49.34
85507;BME280;75915;41.988;21.460;2024-03-02T12:27:50;98096.13;;;16.58;48.27
85507;BME280;75915;41.988;21.460;2024-03-02T12:30:19;98090.06;;;16.53;48.64
85507;BME280;75915;41.988;21.460;2024-03-02T12:32:45;98087.50;;;16.56;49.13
85507;BME280;75915;41.988;21.460;2024-03-02T12:35:12;98092.00;;;16.78;49.24
85507;BME280;75915;41.988;21.460;2024-03-02T12:37:47;98092.78;;;16.88;48.12
85507;BME280;75915;41.988;21.460;2024-03-02T12:40:19;98084.50;;;16.67;48.59
85507;BME280;75915;41.988;21.460;2024-03-02T12:42:48;98087.34;;;16.61;48.88
85507;BME280;75915;41.988;21.460;2024-03-02T12:45:15;98083.22;;;16.55;48.27
85507;BME280;75915;41.988;21.460;2024-03-02T12:47:41;98082.41;;;16.55;48.41
85507;BME280;75915;41.988;21.460;2024-03-02T12:50:10;98080.03;;;16.45;48.55
85507;BME280;75915;41.988;21.460;2024-03-02T12:52:39;98075.56;;;16.40;48.76
85507;BME280;75915;41.988;21.460;2024-03-02T12:55:06;98084.50;;;16.58;47.80